Latest Weather Observations for Frankston

IDV60901

Issued at 11:41 pm EST Saturday 1 August 2015 (issued every 10 minutes, with the page automatically refreshed every 10 minutes)

About weather observations | Map of Melbourne area stations | Latest observations for Melbourne area | Other Formats
Station Details ID: 086371 Name: FRANKSTON AWS Lat: -38.15 Lon: 145.12 Height: 6.0 m
Data from the previous 72 hours. | See also: Recent months at Frankston
Date/Time
EST
Tmp

°C
App
Tmp
°C
Dew
Point
°C
Rel
Hum
%
Delta-T

°C
Wind Press
QNH
hPa
Press
MSL
hPa
Rain
since
9 am
mm
Dir
 
Spd
km/h
Gust
km/h
Spd
kts
Gust
kts
01/11:30pm 9.6 6.0 4.8 72 2.1 NW 13 17 7 9 - - -
01/11:00pm 9.7 5.3 4.5 70 2.3 NW 17 20 9 11 - - -
01/10:30pm 9.9 6.2 4.3 68 2.5 NW 13 15 7 8 - - -
01/10:00pm 10.0 5.9 4.6 69 2.4 NW 15 19 8 10 - - -
01/09:30pm 10.1 6.0 4.3 67 2.6 NW 15 17 8 9 - - -
01/09:00pm 10.1 6.8 4.7 69 2.4 NW 11 15 6 8 - - -
01/08:30pm 10.2 6.9 4.8 69 2.4 NW 11 13 6 7 - - -
01/08:00pm 10.2 7.0 5.2 71 2.3 NNW 11 13 6 7 - - -
01/07:30pm 10.1 6.9 5.3 72 2.2 N 11 13 6 7 - - -
01/07:00pm 9.9 7.6 5.7 75 1.9 N 7 9 4 5 - - -
01/06:30pm 9.9 7.6 5.7 75 1.9 N 7 9 4 5 - - -
01/06:00pm 9.9 7.6 5.5 74 2.0 N 7 9 4 5 - - -
01/05:30pm 9.8 7.5 5.6 75 1.9 N 7 9 4 5 - - -
01/05:00pm 9.9 7.6 5.5 74 2.0 N 7 7 4 4 - - -
01/04:30pm 9.9 7.5 5.3 73 2.1 N 7 9 4 5 - - -
01/04:00pm 10.0 7.5 5.0 71 2.3 NNW 7 9 4 5 - - -
01/03:30pm 10.2 7.7 4.6 68 2.5 NW 7 9 4 5 - - -
01/03:00pm 10.1 7.2 4.5 68 2.5 NW 9 11 5 6 - - -
01/02:30pm 10.2 6.8 4.1 66 2.7 W 11 15 6 8 - - -
01/02:00pm 10.3 5.6 2.9 60 3.2 WSW 17 20 9 11 - - -
01/01:30pm 10.4 5.3 3.0 60 3.2 WSW 19 20 10 11 - - -
01/01:00pm 10.4 5.0 2.5 58 3.4 WSW 20 24 11 13 - - -
01/12:30pm 10.4 5.6 4.8 68 2.5 WSW 19 26 10 14 - - -
01/12:00pm 10.4 5.4 4.8 68 2.5 W 20 24 11 13 - - -
01/11:30am 10.2 5.8 6.5 78 1.7 W 19 26 10 14 - - -
01/11:00am 10.0 5.6 6.5 79 1.6 WNW 19 22 10 12 - - -
01/10:30am 10.5 4.2 5.5 71 2.3 WSW 28 33 15 18 - - -
01/10:00am 10.5 4.7 6.1 74 2.0 WSW 26 32 14 17 - - -
01/09:30am 9.9 6.1 7.5 85 1.1 SW 17 24 9 13 - - -
01/09:00am 9.1 4.3 7.5 90 0.8 SW 22 33 12 18 - - -
01/08:47am 8.9 2.9 7.2 89 0.8 WSW 28 46 15 25 - - -
01/08:30am 9.1 3.6 7.4 89 0.8 WSW 26 32 14 17 - - -
01/08:00am 10.5 3.7 7.6 82 1.4 NNW 33 44 18 24 - - -
01/07:30am 10.4 4.7 6.9 79 1.7 N 26 33 14 18 - - -
01/07:00am 10.8 4.0 6.7 76 1.9 N 32 39 17 21 - - -
01/06:30am 11.3 3.9 6.6 73 2.2 N 35 44 19 24 - - -
01/06:00am 11.4 3.6 6.5 72 2.3 N 37 48 20 26 - - -
01/05:30am 11.9 2.9 6.4 69 2.6 N 43 56 23 30 - - -
01/05:00am 11.9 3.7 6.6 70 2.5 N 39 50 21 27 - - -
01/04:30am 12.3 3.8 6.8 69 2.6 N 41 56 22 30 - - -
01/04:00am 12.2 4.3 6.0 66 2.9 N 37 48 20 26 - - -
01/03:30am 12.2 4.6 5.8 65 3.0 N 35 48 19 26 - - -
01/03:00am 12.0 4.8 5.2 63 3.1 N 32 46 17 25 - - -
01/02:30am 11.8 4.6 4.8 62 3.2 N 32 39 17 21 - - -
01/02:00am 11.6 3.8 4.8 63 3.1 N 35 46 19 25 - - -
01/01:30am 11.6 4.6 4.3 61 3.3 N 30 39 16 21 - - -
01/01:00am 11.1 4.4 3.9 61 3.2 N 28 39 15 21 - - -
01/12:30am 11.2 2.8 3.5 59 3.4 N 37 46 20 25 - - -
01/12:00am 10.8 2.8 4.0 63 3.0 N 35 44 19 24 - - -
 
Date/Time
EST
Tmp

°C
App
Tmp
°C
Dew
Point
°C
Rel
Hum
%
Delta-T

°C
Wind Press
QNH
hPa
Press
MSL
hPa
Rain
since
9 am
mm
Dir
 
Spd
km/h
Gust
km/h
Spd
kts
Gust
kts
31/11:30pm 10.6 2.3 4.1 64 2.9 N 37 50 20 27 - - -
31/11:00pm 10.6 1.5 3.9 63 3.0 N 41 52 22 28 - - -
31/10:30pm 10.6 3.1 4.3 65 2.8 N 33 46 18 25 - - -
31/10:00pm 10.7 2.4 4.0 63 3.0 N 37 50 20 27 - - -
31/09:30pm 10.7 3.1 4.0 63 3.0 NNW 33 43 18 23 - - -
31/09:00pm 10.6 4.4 4.1 64 2.9 NNW 26 35 14 19 - - -
31/08:30pm 10.7 4.9 4.2 64 2.9 NNW 24 33 13 18 - - -
31/08:00pm 10.9 5.0 3.9 62 3.1 N 24 33 13 18 - - -
31/07:30pm 11.0 4.4 4.2 63 3.0 N 28 35 15 19 - - -
31/07:00pm 11.2 5.1 4.9 65 2.9 N 26 35 14 19 - - -
31/06:30pm 11.4 6.0 4.6 63 3.1 N 22 33 12 18 - - -
31/06:00pm 11.4 6.0 4.6 63 3.1 N 22 28 12 15 - - -
31/05:30pm 11.8 6.5 4.8 62 3.2 N 22 28 12 15 - - -
31/05:00pm 11.7 7.3 4.9 63 3.1 N 17 24 9 13 - - -
31/04:30pm 11.3 9.5 1.5 51 4.1 CALM 0 0 0 0 - - -
31/04:00pm 11.0 9.5 3.1 58 3.4 CALM 0 0 0 0 - - -
31/03:30pm 9.8 7.6 3.3 64 2.8 WSW 4 6 2 3 - - -
31/03:00pm 9.7 7.1 4.1 68 2.5 WSW 7 7 4 4 - - -
31/02:30pm 9.6 7.0 4.0 68 2.5 W 7 9 4 5 - - -
31/02:00pm 9.7 7.0 3.9 67 2.5 WNW 7 7 4 4 - - -
31/01:30pm 9.8 7.5 4.6 70 2.3 NW 6 7 3 4 - - -
31/01:00pm 9.5 7.0 4.5 71 2.2 NNW 7 9 4 5 - - -
31/12:30pm 9.1 5.8 4.5 73 2.0 NNW 11 13 6 7 - - -
31/12:00pm 8.9 5.2 4.5 74 1.9 NNW 13 15 7 8 - - -
31/11:30am 8.6 4.1 4.4 75 1.8 NW 17 20 9 11 - - -
31/11:00am 8.4 3.9 4.4 76 1.8 NNW 17 20 9 11 - - -
31/10:30am 8.1 4.8 4.3 77 1.7 NNW 11 15 6 8 - - -
31/10:00am 7.9 5.0 4.7 80 1.4 NNE 9 13 5 7 - - -
31/09:30am 7.9 4.2 4.7 80 1.4 NNW 13 17 7 9 - - -
31/09:00am 7.9 3.9 5.0 82 1.3 NNW 15 19 8 10 - - -
31/08:30am 8.3 4.8 5.4 82 1.3 NW 13 17 7 9 - - -
31/08:00am 8.3 4.5 5.6 83 1.2 WNW 15 20 8 11 - - -
31/07:30am 8.2 4.0 5.7 84 1.1 WNW 17 19 9 10 - - -
31/07:00am 8.2 4.3 5.5 83 1.2 WNW 15 17 8 9 - - -
31/06:30am 8.2 3.4 5.5 83 1.2 WNW 20 24 11 13 - - -
31/06:00am 8.5 5.5 5.8 83 1.2 W 11 13 6 7 - - -
31/05:30am 8.4 5.7 5.5 82 1.3 W 9 13 5 7 - - -
31/05:00am 8.7 4.9 5.6 81 1.4 W 15 17 8 9 - - -
31/04:30am 8.6 5.1 5.4 80 1.4 W 13 15 7 8 - - -
31/04:00am 8.9 5.4 5.5 79 1.5 W 13 15 7 8 - - -
31/03:30am 8.8 4.9 5.4 79 1.5 W 15 17 8 9 - - -
31/03:00am 9.0 5.6 5.7 80 1.5 WSW 13 17 7 9 - - -
31/02:30am 9.2 4.4 5.8 79 1.6 WSW 20 24 11 13 - - -
31/02:00am 9.2 4.5 6.1 81 1.4 W 20 26 11 14 - - -
31/01:30am 9.3 3.9 6.2 81 1.4 WNW 24 28 13 15 - - -
31/01:00am 9.5 3.7 6.4 81 1.4 WNW 26 30 14 16 - - -
31/12:30am 9.7 3.9 6.4 80 1.5 WNW 26 30 14 16 - - -
31/12:00am 9.8 4.1 6.7 81 1.5 W 26 33 14 18 - - -
 
Date/Time
EST
Tmp

°C
App
Tmp
°C
Dew
Point
°C
Rel
Hum
%
Delta-T

°C
Wind Press
QNH
hPa
Press
MSL
hPa
Rain
since
9 am
mm
Dir
 
Spd
km/h
Gust
km/h
Spd
kts
Gust
kts
30/11:30pm 10.0 4.3 6.7 80 1.5 WNW 26 32 14 17 - - -
30/11:00pm 10.0 4.0 6.9 81 1.5 WNW 28 35 15 19 - - -
30/10:30pm 10.2 5.0 7.3 82 1.4 WNW 24 28 13 15 - - -
30/10:00pm 10.0 4.8 7.4 84 1.2 NW 24 32 13 17 - - -
30/09:30pm 10.6 3.6 6.9 78 1.7 WNW 33 41 18 22 - - -
30/09:00pm 9.9 2.8 6.6 80 1.5 NNW 33 44 18 24 - - -
30/08:30pm 10.3 1.6 6.1 75 1.9 NNW 41 54 22 29 - - -
30/08:00pm 10.9 2.5 5.7 70 2.4 N 39 50 21 27 - - -
30/07:30pm 11.0 2.2 5.5 69 2.5 N 41 59 22 32 - - -
30/07:23pm 11.2 2.3 5.3 67 2.7 N 41 59 22 32 - - -
30/07:00pm 11.2 2.3 5.3 67 2.7 N 41 54 22 29 - - -
30/06:39pm 11.2 2.7 5.1 66 2.8 N 39 57 21 31 - - -
30/06:30pm 11.2 2.2 4.7 64 2.9 NNW 41 52 22 28 - - -
30/06:00pm 11.1 1.8 5.2 67 2.7 NNW 43 57 23 31 - - -
30/05:30pm 10.9 2.8 5.2 68 2.6 NNW 37 57 20 31 - - -
30/05:00pm 11.5 2.5 4.3 61 3.2 N 41 56 22 30 - - -
30/04:42pm 11.7 3.0 4.0 59 3.4 N 39 57 21 31 - - -
30/04:30pm 11.8 3.4 3.8 58 3.6 N 37 54 20 29 - - -
30/04:00pm 11.6 3.6 3.9 59 3.4 N 35 46 19 25 - - -
30/03:30pm 11.1 3.9 4.8 65 2.9 N 32 44 17 24 - - -
30/03:00pm 11.2 3.4 4.7 64 2.9 N 35 46 19 25 - - -
30/02:30pm 11.2 2.2 4.4 63 3.1 N 41 54 22 29 - - -
30/02:00pm 10.9 1.6 4.8 66 2.8 N 43 57 23 31 - - -
30/01:30pm 10.8 1.8 4.7 66 2.8 N 41 56 22 30 - - -
30/01:13pm 10.8 0.8 4.5 65 2.8 N 46 65 25 35 - - -
30/01:00pm 10.9 -0.3 4.1 63 3.0 N 52 70 28 38 - - -
30/12:52pm 10.9 0.1 4.1 63 3.0 N 50 70 27 38 - - -
30/12:30pm 11.0 0.2 4.0 62 3.1 N 50 67 27 36 - - -
30/12:04pm 11.4 1.7 3.7 59 3.4 N 44 70 24 38 - - -
30/12:00pm 11.2 1.6 4.4 63 3.1 N 44 57 24 31 - - -
30/11:30am 10.9 0.5 4.4 64 2.9 N 48 65 26 35 - - -
30/11:00am 11.0 1.9 4.2 63 3.0 N 41 59 22 32 - - -
30/10:41am 10.9 2.2 4.1 63 3.0 N 39 57 21 31 - - -
30/10:30am 10.8 1.4 4.3 64 2.9 N 43 57 23 31 - - -
30/10:20am 10.8 2.1 4.0 63 3.0 N 39 57 21 31 - - -
30/10:00am 10.5 3.2 4.4 66 2.7 N 32 43 17 23 - - -
30/09:30am 10.3 2.3 4.0 65 2.8 N 35 43 19 23 - - -
30/09:00am 10.2 2.8 4.1 66 2.7 N 32 41 17 22 - - -
30/08:30am 10.0 2.7 4.4 68 2.5 N 32 43 17 23 - - -
30/08:00am 9.6 4.1 4.0 68 2.5 N 22 28 12 15 - - -
30/07:30am 9.6 3.4 4.4 70 2.3 N 26 33 14 18 - - -
30/07:00am 9.7 3.5 4.3 69 2.4 N 26 33 14 18 - - -
30/06:30am 9.6 4.5 4.2 69 2.4 N 20 26 11 14 - - -
30/06:00am 9.7 4.7 4.5 70 2.3 N 20 26 11 14 - - -
30/05:30am 9.8 3.2 4.2 68 2.5 N 28 33 15 18 - - -
30/05:00am 9.7 4.2 4.1 68 2.5 N 22 30 12 16 - - -
30/04:30am 9.6 3.4 4.2 69 2.4 N 26 33 14 18 - - -
30/04:00am 9.5 4.1 4.3 70 2.3 N 22 28 12 15 - - -
30/03:30am 9.3 4.4 4.1 70 2.3 N 19 24 10 13 - - -
30/03:00am 9.0 4.8 4.0 71 2.2 N 15 19 8 10 - - -
30/02:30am 9.3 4.8 4.3 71 2.2 N 17 22 9 12 - - -
30/02:00am 9.6 5.2 4.8 72 2.1 N 17 20 9 11 - - -
30/01:30am 9.6 5.2 5.0 73 2.1 N 17 22 9 12 - - -
30/01:00am 9.3 5.7 4.9 74 2.0 NNE 13 20 7 11 - - -
30/12:30am 9.6 5.2 5.0 73 2.1 NNE 17 20 9 11 - - -
30/12:00am 9.8 5.5 5.2 73 2.1 N 17 20 9 11 - - -

Latest Capital City Observations: Canberra | Sydney | Melbourne | Brisbane | Adelaide | Perth | Hobart | Darwin

Other Formats:

Comma delimited format used in spreadsheet applications
http://www.bom.gov.au/fwo/IDV60901/IDV60901.94871.axf

JavaScript Object Notation format (JSON) in row-major order
http://www.bom.gov.au/fwo/IDV60901/IDV60901.94871.json